Time;durP1;ratioP1;P1;durP2;ratioP2;P2;SDS_P1;SDS_P2;PMS_P1;PMS_P2;Temp;Humidity;BMP_temperature;BMP_pressure;BME280_temperature;BME280_humidity;BME280_pressure;Samples;Min_cycle;Max_cycle;Signal;HPM_P1;HPM_P2
2023/03/24 00:00:43;;;;;;;9.13;4.63;;;11.70;99.90;;;;;;4986282;28;20049;-65
2023/03/24 00:03:09;;;;;;;11.75;5.20;;;11.70;99.90;;;;;;4989578;28;20038;-65
2023/03/24 00:05:35;;;;;;;12.23;4.85;;;11.70;99.90;;;;;;4974496;28;20138;-65
2023/03/24 00:08:01;;;;;;;11.45;4.80;;;11.70;99.90;;;;;;4973411;28;20549;-65
2023/03/24 00:10:29;;;;;;;8.32;4.53;;;11.70;99.90;;;;;;4974424;28;20031;-65
2023/03/24 00:12:57;;;;;;;9.82;4.60;;;11.80;99.90;;;;;;4969063;28;20042;-65
2023/03/24 00:15:24;;;;;;;8.02;4.57;;;11.80;99.90;;;;;;4978530;28;20078;-65
2023/03/24 00:17:50;;;;;;;13.88;5.03;;;11.70;99.90;;;;;;4972146;28;20585;-65
2023/03/24 00:20:18;;;;;;;9.18;4.60;;;11.70;99.90;;;;;;4974271;28;20050;-65
2023/03/24 00:22:49;;;;;;;9.73;4.70;;;11.70;99.90;;;;;;4979217;28;20051;-65
2023/03/24 00:25:18;;;;;;;10.02;4.38;;;11.70;99.90;;;;;;4974118;28;20039;-65
2023/03/24 00:27:43;;;;;;;12.40;4.75;;;11.70;99.90;;;;;;4983118;28;20046;-65
2023/03/24 00:30:11;;;;;;;10.85;4.80;;;11.70;99.90;;;;;;4976491;28;20049;-65
2023/03/24 00:32:37;;;;;;;11.73;5.00;;;11.70;99.90;;;;;;4973300;28;20043;-65
2023/03/24 00:35:05;;;;;;;8.93;4.65;;;11.60;99.90;;;;;;4972723;28;20049;-65
2023/03/24 00:37:30;;;;;;;9.25;4.55;;;11.60;99.90;;;;;;4971705;28;20043;-65
2023/03/24 00:39:56;;;;;;;13.38;5.25;;;11.60;99.90;;;;;;4978316;28;20192;-65
2023/03/24 00:42:23;;;;;;;8.07;4.45;;;11.60;99.90;;;;;;4972476;28;20049;-65
2023/03/24 00:44:49;;;;;;;11.57;4.95;;;11.60;99.90;;;;;;4973491;28;20057;-65
2023/03/24 00:47:16;;;;;;;10.60;4.65;;;11.60;99.90;;;;;;4974702;28;20516;-65
2023/03/24 00:49:43;;;;;;;12.10;4.90;;;11.60;99.90;;;;;;4973758;28;20050;-65
2023/03/24 00:52:19;;;;;;;8.88;4.28;;;11.60;99.90;;;;;;4972363;28;20055;-65
2023/03/24 00:54:46;;;;;;;9.80;4.68;;;11.70;99.90;;;;;;4972574;28;20027;-65
2023/03/24 00:57:20;;;;;;;9.30;4.78;;;11.70;99.90;;;;;;4972492;28;20035;-65
2023/03/24 00:59:50;;;;;;;9.52;4.60;;;11.70;99.90;;;;;;4973308;28;20081;-65
2023/03/24 01:02:20;;;;;;;10.00;4.85;;;11.60;99.90;;;;;;4971835;28;20433;-65
2023/03/24 01:04:57;;;;;;;11.35;4.80;;;11.70;99.90;;;;;;4978219;28;20412;-65
2023/03/24 01:07:25;;;;;;;10.77;5.18;;;11.70;99.90;;;;;;4972744;28;20039;-65
2023/03/24 01:09:56;;;;;;;7.72;4.70;;;11.70;99.90;;;;;;4971994;28;20034;-65
2023/03/24 01:12:34;;;;;;;11.85;5.07;;;11.70;99.90;;;;;;4974453;28;20452;-65
2023/03/24 01:15:04;;;;;;;9.38;5.22;;;11.70;99.90;;;;;;4971712;28;20718;-65
2023/03/24 01:17:33;;;;;;;9.55;4.95;;;11.70;99.90;;;;;;4971483;28;20501;-65
2023/03/24 01:20:07;;;;;;;8.40;4.75;;;11.70;99.90;;;;;;4975678;28;20043;-65
2023/03/24 01:22:36;;;;;;;12.43;5.50;;;11.80;99.90;;;;;;4971928;28;20090;-65
2023/03/24 01:25:08;;;;;;;11.05;4.85;;;11.80;99.90;;;;;;4972120;28;20046;-65
2023/03/24 01:27:35;;;;;;;10.00;4.90;;;11.80;99.90;;;;;;4970241;28;20050;-65
2023/03/24 01:30:01;;;;;;;8.38;4.82;;;11.80;99.90;;;;;;4972599;28;20105;-65
2023/03/24 01:32:28;;;;;;;10.30;5.25;;;11.80;99.90;;;;;;4972644;28;20039;-65
2023/03/24 01:34:53;;;;;;;8.43;5.03;;;11.80;99.90;;;;;;4971610;28;20153;-65
2023/03/24 01:37:19;;;;;;;9.45;5.00;;;11.80;99.90;;;;;;4980866;28;20485;-65
2023/03/24 01:39:45;;;;;;;9.65;5.35;;;11.80;99.90;;;;;;4972866;28;20085;-65
2023/03/24 01:42:22;;;;;;;11.88;5.40;;;11.80;99.90;;;;;;4971757;28;20046;-65
2023/03/24 01:44:50;;;;;;;10.18;5.45;;;11.80;99.90;;;;;;4969546;28;20470;-65
2023/03/24 01:47:16;;;;;;;8.23;4.60;;;11.80;99.90;;;;;;4978228;28;20386;-65
2023/03/24 01:49:51;;;;;;;8.55;5.38;;;11.80;99.90;;;;;;4973266;28;20038;-65
2023/03/24 01:52:29;;;;;;;10.70;5.63;;;11.80;99.90;;;;;;4970735;28;20042;-65
2023/03/24 01:54:59;;;;;;;11.00;6.10;;;11.90;99.90;;;;;;4972362;28;20035;-65
2023/03/24 01:57:25;;;;;;;9.60;4.93;;;11.90;99.90;;;;;;4971826;28;20031;-65
2023/03/24 01:59:54;;;;;;;8.70;5.63;;;11.90;99.90;;;;;;4972374;28;20043;-65
2023/03/24 02:02:20;;;;;;;10.90;5.03;;;12.00;99.90;;;;;;4972919;28;20049;-65
2023/03/24 02:04:52;;;;;;;8.85;5.90;;;11.90;99.90;;;;;;4978970;28;20050;-65
2023/03/24 02:07:30;;;;;;;10.20;6.38;;;12.00;99.90;;;;;;4972106;28;20039;-65
2023/03/24 02:09:56;;;;;;;8.80;5.63;;;12.00;99.90;;;;;;4970361;28;20093;-65
2023/03/24 02:12:22;;;;;;;9.57;5.75;;;12.00;99.90;;;;;;4986896;28;20746;-65
2023/03/24 02:14:48;;;;;;;9.52;5.38;;;12.00;99.90;;;;;;4972891;28;20043;-65
2023/03/24 02:17:53;;;;;;;11.77;5.65;;;12.00;99.90;;;;;;4979551;28;20035;-65
2023/03/24 02:20:57;;;;;;;8.27;5.03;;;12.10;99.90;;;;;;4970742;28;20065;-65
2023/03/24 02:23:49;;;;;;;8.55;4.97;;;12.10;99.90;;;;;;4972139;28;20070;-65
2023/03/24 02:26:17;;;;;;;;;;;12.10;99.90;;;;;;4972570;28;20043;-65
2023/03/24 02:29:17;;;;;;;8.13;5.30;;;12.10;99.90;;;;;;4978790;28;20001;-65
2023/03/24 02:31:55;;;;;;;7.90;4.97;;;12.10;99.90;;;;;;4975979;28;20053;-65
2023/03/24 02:34:58;;;;;;;7.15;5.47;;;12.10;99.90;;;;;;4973974;28;20038;-65
2023/03/24 02:37:42;;;;;;;10.48;5.70;;;12.20;99.90;;;;;;4974706;28;20066;-65
2023/03/24 02:40:26;;;;;;;9.75;6.18;;;12.20;99.90;;;;;;4975271;28;20058;-66
2023/03/24 02:43:10;;;;;;;8.88;6.55;;;12.20;99.90;;;;;;4973241;28;20069;-66
2023/03/24 02:45:43;;;;;;;8.20;5.53;;;12.20;99.90;;;;;;4980430;28;20098;-66
2023/03/24 02:48:36;;;;;;;9.70;6.15;;;12.20;99.90;;;;;;4975320;28;20101;-66
2023/03/24 02:51:16;;;;;;;9.32;6.10;;;12.30;99.90;;;;;;4979983;28;20042;-67
2023/03/24 02:54:08;;;;;;;9.95;5.88;;;12.20;99.90;;;;;;4974923;28;20039;-67
2023/03/24 02:56:39;;;;;;;9.07;6.10;;;12.30;99.90;;;;;;4975512;28;20421;-66
2023/03/24 02:59:08;;;;;;;8.70;6.20;;;12.20;99.90;;;;;;4975097;28;20445;-67
2023/03/24 03:01:40;;;;;;;9.18;6.28;;;12.20;99.90;;;;;;4974534;28;20050;-67
2023/03/24 03:04:14;;;;;;;8.07;5.68;;;12.20;99.90;;;;;;4973433;28;20497;-67
2023/03/24 03:06:46;;;;;;;9.07;6.38;;;12.20;99.90;;;;;;4983036;28;20489;-67
2023/03/24 03:09:16;;;;;;;7.28;5.53;;;12.20;99.90;;;;;;4974849;28;20532;-67
2023/03/24 03:11:46;;;;;;;9.90;6.20;;;12.20;99.90;;;;;;4974082;28;20050;-66
2023/03/24 03:14:21;;;;;;;8.30;5.90;;;12.30;99.90;;;;;;4973156;28;20049;-66
2023/03/24 03:16:58;;;;;;;9.27;6.22;;;12.30;99.90;;;;;;4974192;28;20057;-66
2023/03/24 03:19:54;;;;;;;8.13;5.00;;;12.30;99.90;;;;;;4975015;28;20070;-67
2023/03/24 03:22:27;;;;;;;8.52;5.78;;;12.30;99.90;;;;;;4972302;28;20078;-67
2023/03/24 03:24:56;;;;;;;9.55;6.25;;;12.30;99.90;;;;;;4975217;28;20117;-67
2023/03/24 03:27:27;;;;;;;7.78;5.70;;;12.20;99.90;;;;;;4974443;28;20042;-67
2023/03/24 03:30:01;;;;;;;8.48;6.40;;;12.20;99.90;;;;;;4973399;28;20039;-67
2023/03/24 03:32:32;;;;;;;7.47;5.00;;;12.30;99.90;;;;;;4975255;28;20489;-67
2023/03/24 03:35:21;;;;;;;8.05;5.25;;;12.30;99.90;;;;;;4974737;28;20054;-67
2023/03/24 03:37:59;;;;;;;7.82;5.10;;;12.30;99.90;;;;;;4984592;28;20066;-67
2023/03/24 03:40:50;;;;;;;8.95;5.82;;;12.40;99.90;;;;;;4978257;28;20035;-67
2023/03/24 03:43:16;;;;;;;7.30;5.30;;;12.40;99.90;;;;;;4968723;28;20091;-67
2023/03/24 03:45:41;;;;;;;8.18;5.97;;;12.40;99.90;;;;;;4974813;28;20066;-67
2023/03/24 03:48:07;;;;;;;8.32;5.90;;;12.40;99.90;;;;;;4972564;28;20069;-67
2023/03/24 03:50:33;;;;;;;7.18;5.15;;;12.40;99.90;;;;;;4974160;28;20042;-67
2023/03/24 03:53:00;;;;;;;8.18;4.93;;;12.40;99.90;;;;;;4973450;28;20605;-67
2023/03/24 03:55:26;;;;;;;6.25;4.45;;;12.40;99.90;;;;;;4982050;28;20049;-67
2023/03/24 03:57:53;;;;;;;6.45;4.70;;;12.40;99.90;;;;;;4973763;28;20105;-67
2023/03/24 04:00:21;;;;;;;6.55;4.53;;;12.50;99.90;;;;;;4974272;28;20038;-67
2023/03/24 04:02:55;;;;;;;5.90;4.13;;;12.60;99.90;;;;;;4974985;28;20046;-67
2023/03/24 04:05:46;;;;;;;6.55;4.00;;;12.60;99.90;;;;;;4973889;28;20046;-67
2023/03/24 04:08:37;;;;;;;6.53;3.92;;;12.50;99.90;;;;;;4973911;28;20042;-67
2023/03/24 04:11:24;;;;;;;7.65;4.13;;;12.40;99.90;;;;;;4970495;28;20042;-67
2023/03/24 04:14:18;;;;;;;6.28;3.60;;;12.10;99.90;;;;;;4972656;28;20118;-67
2023/03/24 04:17:02;;;;;;;6.78;3.25;;;12.00;99.90;;;;;;4973887;28;20046;-67
2023/03/24 04:19:56;;;;;;;8.23;3.80;;;11.80;99.90;;;;;;4972695;28;20477;-67
2023/03/24 04:22:53;;;;;;;8.15;3.65;;;11.80;99.90;;;;;;4975321;28;20031;-67
2023/03/24 04:25:33;;;;;;;7.07;3.50;;;11.70;99.90;;;;;;4940185;28;20050;-67
2023/03/24 04:28:18;;;;;;;7.30;2.63;;;11.50;99.90;;;;;;4972761;28;20038;-67
2023/03/24 04:30:54;;;;;;;6.03;2.47;;;11.40;99.90;;;;;;4981680;28;20058;-67
2023/03/24 04:33:37;;;;;;;6.57;2.75;;;11.30;99.90;;;;;;4973643;28;20134;-67
2023/03/24 04:36:33;;;;;;;5.45;2.47;;;11.20;99.90;;;;;;4982241;28;20528;-67
2023/03/24 04:39:00;;;;;;;6.30;2.40;;;11.20;99.90;;;;;;4967286;28;20074;-67
2023/03/24 04:41:29;;;;;;;8.95;2.47;;;11.10;99.90;;;;;;4973613;28;20042;-67
2023/03/24 04:43:57;;;;;;;7.15;2.70;;;11.10;99.90;;;;;;4969833;28;20046;-67
2023/03/24 04:46:23;;;;;;;11.02;2.60;;;11.10;99.90;;;;;;4979270;28;20038;-67
2023/03/24 04:48:49;;;;;;;4.65;2.33;;;11.10;99.90;;;;;;4972749;28;20038;-67
2023/03/24 04:51:17;;;;;;;7.10;2.72;;;11.10;99.90;;;;;;4972970;28;20046;-67
2023/03/24 04:53:44;;;;;;;6.97;2.40;;;11.10;99.90;;;;;;4971032;28;20042;-67
2023/03/24 04:56:33;;;;;;;8.25;2.45;;;11.00;99.90;;;;;;4973702;28;20039;-67
2023/03/24 04:58:59;;;;;;;9.02;2.67;;;11.00;99.90;;;;;;4972660;28;20038;-67
2023/03/24 05:01:28;;;;;;;8.95;3.08;;;11.00;99.90;;;;;;4975309;28;20041;-67
2023/03/24 05:03:55;;;;;;;5.57;2.80;;;10.90;99.90;;;;;;4971486;28;20058;-67
2023/03/24 05:06:21;;;;;;;9.35;2.60;;;10.90;99.90;;;;;;4973347;28;20070;-67
2023/03/24 05:08:46;;;;;;;9.52;2.50;;;11.00;99.90;;;;;;4972735;28;20066;-67
2023/03/24 05:11:12;;;;;;;10.95;2.90;;;10.90;99.90;;;;;;4973615;28;20073;-67
2023/03/24 05:13:37;;;;;;;9.93;3.40;;;11.00;99.90;;;;;;4976794;28;20042;-67
2023/03/24 05:16:03;;;;;;;10.75;3.60;;;10.90;99.90;;;;;;4972989;28;20038;-67
2023/03/24 05:18:29;;;;;;;9.05;3.20;;;11.00;99.90;;;;;;4970149;28;20042;-67
2023/03/24 05:20:55;;;;;;;9.73;3.35;;;10.90;99.90;;;;;;4974352;28;20070;-67
2023/03/24 05:23:20;;;;;;;11.75;3.47;;;10.90;99.90;;;;;;4973000;28;20038;-67
2023/03/24 05:25:46;;;;;;;12.00;3.58;;;10.80;99.90;;;;;;4969813;28;20383;-67
2023/03/24 05:28:12;;;;;;;10.13;3.05;;;10.80;99.90;;;;;;4971664;28;20043;-67
2023/03/24 05:30:37;;;;;;;12.15;2.97;;;10.70;99.90;;;;;;4972376;28;20125;-67
2023/03/24 05:33:03;;;;;;;10.60;3.28;;;10.70;99.90;;;;;;4972691;28;20043;-67
2023/03/24 05:35:29;;;;;;;10.00;2.97;;;10.80;99.90;;;;;;4976286;28;20056;-67
2023/03/24 05:37:55;;;;;;;9.63;2.83;;;10.70;99.90;;;;;;4971726;28;20035;-67
2023/03/24 05:40:20;;;;;;;10.93;3.63;;;10.70;99.90;;;;;;4968200;28;20101;-67
2023/03/24 05:42:49;;;;;;;10.27;3.10;;;10.70;99.90;;;;;;4971321;28;20035;-67
2023/03/24 05:45:15;;;;;;;9.38;3.10;;;10.60;99.90;;;;;;4972218;28;20046;-67
2023/03/24 05:47:40;;;;;;;6.05;2.65;;;10.50;99.90;;;;;;4977454;28;20512;-67
2023/03/24 05:50:07;;;;;;;13.20;2.72;;;10.40;99.90;;;;;;4971153;28;20035;-67
2023/03/24 05:52:33;;;;;;;9.05;2.78;;;10.30;99.90;;;;;;4969577;28;20089;-67
2023/03/24 05:54:59;;;;;;;7.57;2.50;;;10.30;99.90;;;;;;4970841;28;20041;-67
2023/03/24 05:57:25;;;;;;;7.28;2.72;;;10.20;99.90;;;;;;4971895;28;20043;-67
2023/03/24 05:59:51;;;;;;;12.07;2.50;;;10.20;99.90;;;;;;4972473;28;20046;-67
2023/03/24 06:02:16;;;;;;;8.52;2.60;;;10.20;99.90;;;;;;4973766;28;20041;-67
2023/03/24 06:04:47;;;;;;;8.25;2.80;;;10.20;99.90;;;;;;4976581;28;20042;-67
2023/03/24 06:07:13;;;;;;;8.30;2.63;;;10.20;99.90;;;;;;4972135;28;20050;-67
2023/03/24 06:09:41;;;;;;;8.93;2.63;;;10.10;99.90;;;;;;4976543;28;20054;-67
2023/03/24 06:12:07;;;;;;;5.82;2.60;;;10.20;99.90;;;;;;4976029;28;20504;-67
2023/03/24 06:14:33;;;;;;;8.07;2.33;;;10.20;99.90;;;;;;4976589;28;20129;-67
2023/03/24 06:16:58;;;;;;;12.02;2.45;;;10.20;99.90;;;;;;4973554;28;20114;-67
2023/03/24 06:19:25;;;;;;;8.05;2.40;;;10.20;99.90;;;;;;4975243;28;20097;-67
2023/03/24 06:21:53;;;;;;;9.77;2.83;;;10.20;99.90;;;;;;4975053;28;20653;-67
2023/03/24 06:24:20;;;;;;;7.40;2.25;;;10.30;99.90;;;;;;4972226;28;20465;-67
2023/03/24 06:26:48;;;;;;;9.07;2.92;;;10.40;99.90;;;;;;4980113;28;20039;-67
2023/03/24 06:29:18;;;;;;;11.55;3.00;;;10.40;99.90;;;;;;4975611;28;20035;-67
2023/03/24 06:31:46;;;;;;;7.43;2.80;;;10.50;99.90;;;;;;4974669;28;20516;-67
2023/03/24 06:34:12;;;;;;;13.20;2.80;;;10.50;99.90;;;;;;4978959;28;20045;-67
2023/03/24 06:36:37;;;;;;;10.00;2.85;;;10.60;99.90;;;;;;4975168;28;20034;-67
2023/03/24 06:39:04;;;;;;;7.47;2.75;;;10.60;99.90;;;;;;4975368;28;20096;-67
2023/03/24 06:41:31;;;;;;;12.20;3.10;;;10.60;99.90;;;;;;4973950;28;20034;-67
2023/03/24 06:43:57;;;;;;;10.40;2.95;;;10.60;99.90;;;;;;4982093;28;20031;-67
2023/03/24 06:46:23;;;;;;;10.35;2.90;;;10.70;99.90;;;;;;4975508;28;20123;-67
2023/03/24 06:48:49;;;;;;;10.55;2.70;;;10.70;99.90;;;;;;4973825;28;20182;-67
2023/03/24 06:51:14;;;;;;;10.02;2.95;;;10.70;99.90;;;;;;4977084;28;20421;-67
2023/03/24 06:53:40;;;;;;;12.23;2.88;;;10.70;99.90;;;;;;4973804;28;20043;-68
2023/03/24 06:56:06;;;;;;;12.75;2.90;;;10.70;99.90;;;;;;4964722;28;21031;-67
2023/03/24 06:58:33;;;;;;;9.43;2.72;;;10.70;99.90;;;;;;4979646;28;20057;-67
2023/03/24 07:01:00;;;;;;;9.48;3.10;;;10.90;99.90;;;;;;4971556;28;20053;-67
2023/03/24 07:03:26;;;;;;;12.70;3.03;;;11.00;99.90;;;;;;4972060;28;20038;-68
2023/03/24 07:05:51;;;;;;;11.48;2.80;;;11.00;99.90;;;;;;4970092;28;20046;-67
2023/03/24 07:08:18;;;;;;;11.45;3.10;;;11.00;99.90;;;;;;4977767;28;20034;-66
2023/03/24 07:10:43;;;;;;;10.90;3.10;;;11.00;99.90;;;;;;4972118;28;20110;-68
2023/03/24 07:13:09;;;;;;;13.98;3.30;;;11.00;99.90;;;;;;4971522;28;20043;-67
2023/03/24 07:15:35;;;;;;;9.60;2.60;;;10.90;99.90;;;;;;4969043;28;20046;-67
2023/03/24 07:18:00;;;;;;;16.50;3.42;;;10.90;99.90;;;;;;4969334;28;20039;-67
2023/03/24 07:20:26;;;;;;;15.82;3.70;;;10.90;99.90;;;;;;4970754;28;20077;-67
2023/03/24 07:22:56;;;;;;;15.15;3.13;;;10.90;99.90;;;;;;4969471;28;20153;-66
2023/03/24 07:25:22;;;;;;;10.40;2.83;;;10.90;99.90;;;;;;4971234;28;20055;-67
2023/03/24 07:27:48;;;;;;;15.27;3.45;;;10.90;99.90;;;;;;4970974;28;20047;-67
2023/03/24 07:30:14;;;;;;;17.15;3.03;;;11.00;99.90;;;;;;4971589;28;20085;-67
2023/03/24 07:32:41;;;;;;;13.13;3.33;;;11.00;99.90;;;;;;4969325;28;20102;-67
2023/03/24 07:35:12;;;;;;;11.60;3.00;;;11.10;99.90;;;;;;4970556;28;20074;-67
2023/03/24 07:37:38;;;;;;;11.68;3.05;;;11.10;99.90;;;;;;4971135;28;20039;-67
2023/03/24 07:40:10;;;;;;;19.02;3.85;;;11.20;99.90;;;;;;4971551;28;20101;-67
2023/03/24 07:42:43;;;;;;;15.70;3.47;;;11.20;99.90;;;;;;4967164;28;20098;-67
2023/03/24 07:45:10;;;;;;;15.23;3.10;;;11.20;99.90;;;;;;4970692;28;20039;-67
2023/03/24 07:47:37;;;;;;;15.35;3.70;;;11.30;99.90;;;;;;4968958;28;20072;-67
2023/03/24 07:50:08;;;;;;;13.43;3.92;;;11.30;99.90;;;;;;4975196;28;20034;-67
2023/03/24 07:52:38;;;;;;;16.60;3.33;;;11.30;99.90;;;;;;4971076;28;20050;-67
2023/03/24 07:55:10;;;;;;;11.77;3.63;;;11.30;99.90;;;;;;4971102;28;20130;-67
2023/03/24 07:57:36;;;;;;;15.07;3.78;;;11.30;99.90;;;;;;4967704;28;20070;-67
2023/03/24 08:00:16;;;;;;;15.27;3.28;;;11.30;99.90;;;;;;4970745;28;20039;-67
2023/03/24 08:02:44;;;;;;;14.57;3.88;;;11.40;99.90;;;;;;4970995;28;20074;-67
2023/03/24 08:05:12;;;;;;;15.57;3.65;;;11.40;99.90;;;;;;4969560;28;20034;-67
2023/03/24 08:07:42;;;;;;;15.50;3.70;;;11.50;99.90;;;;;;4970925;28;20405;-67
2023/03/24 08:10:12;;;;;;;13.85;3.72;;;11.50;99.90;;;;;;4984849;28;20046;-67
2023/03/24 08:12:38;;;;;;;17.60;4.20;;;11.70;99.90;;;;;;4987402;28;20382;-67
2023/03/24 08:15:06;;;;;;;15.20;4.00;;;11.90;99.90;;;;;;4977979;28;20436;-67
2023/03/24 08:17:32;;;;;;;11.05;3.85;;;11.90;99.90;;;;;;4975893;28;20397;-66
2023/03/24 08:19:58;;;;;;;14.23;4.15;;;11.90;99.90;;;;;;4972697;28;20507;-67
2023/03/24 08:22:23;;;;;;;19.52;4.28;;;11.80;99.90;;;;;;4974032;28;20459;-66
2023/03/24 08:24:49;;;;;;;16.35;4.10;;;11.70;99.90;;;;;;4972430;28;20035;-66
2023/03/24 08:27:15;;;;;;;18.25;4.53;;;11.70;99.90;;;;;;4973348;28;20129;-66
2023/03/24 08:29:41;;;;;;;14.05;4.30;;;11.90;99.90;;;;;;4974075;28;20126;-67
2023/03/24 08:32:07;;;;;;;19.40;4.15;;;11.90;99.90;;;;;;4974864;28;20038;-66
2023/03/24 08:34:32;;;;;;;18.85;4.05;;;11.90;99.90;;;;;;4973398;28;20041;-66
2023/03/24 08:36:58;;;;;;;18.65;4.05;;;11.90;99.90;;;;;;4973317;28;20486;-66
2023/03/24 08:39:23;;;;;;;15.55;3.72;;;12.00;99.90;;;;;;4972816;28;20035;-65
2023/03/24 08:41:49;;;;;;;15.65;4.38;;;12.00;99.90;;;;;;4976247;28;20765;-66
2023/03/24 08:44:15;;;;;;;19.23;4.15;;;12.00;99.90;;;;;;4972335;28;20505;-65
2023/03/24 08:46:41;;;;;;;15.85;3.90;;;12.00;99.90;;;;;;4973658;28;20049;-65
2023/03/24 08:49:07;;;;;;;15.23;3.70;;;12.00;99.90;;;;;;4976584;28;20117;-66
2023/03/24 08:51:33;;;;;;;14.13;3.53;;;11.90;99.90;;;;;;4973096;28;20086;-66
2023/03/24 08:54:00;;;;;;;16.15;2.90;;;12.00;99.90;;;;;;4973254;28;20035;-65
2023/03/24 08:56:25;;;;;;;12.82;3.25;;;12.10;99.90;;;;;;4974760;28;20117;-66
2023/03/24 08:58:52;;;;;;;15.77;3.40;;;12.40;99.90;;;;;;4972203;28;20121;-65
2023/03/24 09:01:19;;;;;;;14.18;3.30;;;12.30;99.90;;;;;;4977498;28;20066;-66
2023/03/24 09:03:45;;;;;;;16.63;3.63;;;12.10;99.90;;;;;;4973196;28;20046;-65
2023/03/24 09:06:12;;;;;;;11.75;2.90;;;12.10;99.90;;;;;;4970963;28;20038;-66
2023/03/24 09:08:37;;;;;;;14.13;3.35;;;12.20;99.90;;;;;;4969211;28;20056;-66
2023/03/24 09:11:04;;;;;;;13.57;3.08;;;12.40;99.90;;;;;;4974216;28;20474;-63
2023/03/24 09:13:30;;;;;;;14.00;3.70;;;12.60;99.90;;;;;;4974616;28;20043;-66
2023/03/24 09:16:01;;;;;;;13.60;3.65;;;12.90;99.90;;;;;;4973343;28;20041;-67
2023/03/24 09:18:27;;;;;;;17.48;2.90;;;13.00;99.90;;;;;;4971756;28;20034;-66
2023/03/24 09:20:52;;;;;;;12.90;3.80;;;12.90;99.90;;;;;;4981000;28;20342;-66
2023/03/24 09:23:19;;;;;;;16.10;3.50;;;12.90;99.90;;;;;;4975729;28;20036;-67
2023/03/24 09:25:44;;;;;;;13.73;2.88;;;12.90;99.90;;;;;;4972286;28;20053;-66
2023/03/24 09:28:10;;;;;;;10.80;3.10;;;12.80;99.90;;;;;;4970304;28;20121;-66
2023/03/24 09:30:36;;;;;;;16.08;3.40;;;12.80;99.90;;;;;;4971993;28;20444;-65
2023/03/24 09:33:03;;;;;;;14.07;3.13;;;12.90;99.90;;;;;;4972638;28;20031;-66
2023/03/24 09:35:29;;;;;;;12.73;3.03;;;12.90;99.90;;;;;;4972337;28;20038;-66
2023/03/24 09:37:54;;;;;;;16.60;3.20;;;12.90;99.90;;;;;;4971896;28;20039;-66
2023/03/24 09:40:23;;;;;;;16.77;2.75;;;12.90;99.90;;;;;;4982194;28;20117;-66
2023/03/24 09:43:04;;;;;;;10.05;2.53;;;12.90;99.90;;;;;;4970888;28;20404;-67
2023/03/24 09:45:35;;;;;;;13.98;3.58;;;12.80;99.90;;;;;;4972873;28;20481;-66
2023/03/24 09:48:13;;;;;;;14.57;3.17;;;12.80;99.90;;;;;;4970269;28;20035;-65
2023/03/24 09:50:48;;;;;;;15.05;3.20;;;12.80;99.90;;;;;;4977720;28;20046;-70
2023/03/24 09:53:29;;;;;;;12.98;2.70;;;12.80;99.90;;;;;;4971988;28;20138;-67
2023/03/24 09:55:57;;;;;;;13.90;2.95;;;12.70;99.90;;;;;;4969393;28;20093;-65
2023/03/24 09:58:26;;;;;;;13.63;3.33;;;12.80;99.90;;;;;;4975623;28;20073;-65
2023/03/24 10:00:51;;;;;;;13.05;3.00;;;12.80;99.90;;;;;;4972866;28;20039;-65
2023/03/24 10:03:20;;;;;;;11.98;2.95;;;12.70;99.90;;;;;;4975653;28;20042;-66
2023/03/24 10:05:51;;;;;;;13.95;2.90;;;12.80;99.90;;;;;;4976057;28;20121;-64
2023/03/24 10:08:37;;;;;;;15.30;3.45;;;12.90;99.90;;;;;;4973613;28;20065;-66
2023/03/24 10:11:23;;;;;;;14.57;3.00;;;12.80;99.90;;;;;;4973454;28;20129;-66
2023/03/24 10:14:09;;;;;;;14.45;3.25;;;12.90;99.90;;;;;;4968258;28;20401;-65
2023/03/24 10:16:45;;;;;;;15.48;3.17;;;13.00;99.90;;;;;;4968203;28;20051;-66
2023/03/24 10:19:25;;;;;;;11.45;3.42;;;13.10;99.90;;;;;;4972606;28;20046;-66
2023/03/24 10:22:18;;;;;;;17.73;3.53;;;13.10;99.90;;;;;;4978852;28;20101;-66
2023/03/24 10:25:05;;;;;;;10.93;2.60;;;13.20;99.90;;;;;;4974285;28;20046;-65
2023/03/24 10:27:40;;;;;;;11.13;3.00;;;13.30;99.90;;;;;;4972758;28;20486;-66
2023/03/24 10:30:18;;;;;;;15.05;2.97;;;13.30;99.90;;;;;;4981530;28;20053;-66
2023/03/24 10:32:44;;;;;;;13.55;3.08;;;13.30;99.90;;;;;;4986783;28;20414;-64
2023/03/24 10:35:30;;;;;;;10.70;2.55;;;13.30;99.90;;;;;;4967522;28;20476;-67
2023/03/24 10:37:59;;;;;;;11.40;2.92;;;13.50;99.90;;;;;;4966395;28;20058;-67
2023/03/24 10:40:30;;;;;;;14.27;2.92;;;13.40;99.90;;;;;;4967440;28;20128;-67
2023/03/24 10:42:57;;;;;;;10.77;2.90;;;13.30;99.90;;;;;;4967867;28;20082;-67
2023/03/24 10:45:32;;;;;;;10.02;2.40;;;13.40;99.90;;;;;;4969421;28;20034;-68
2023/03/24 10:48:00;;;;;;;11.82;3.00;;;13.50;99.90;;;;;;4969358;28;20088;-68
2023/03/24 10:50:29;;;;;;;17.58;2.92;;;13.60;99.90;;;;;;4972431;28;20051;-67
2023/03/24 10:52:56;;;;;;;12.15;3.00;;;13.70;99.90;;;;;;4969497;28;20078;-67
2023/03/24 10:55:28;;;;;;;12.70;3.03;;;13.70;99.90;;;;;;4970062;28;20035;-66
2023/03/24 10:57:56;;;;;;;11.05;2.70;;;13.80;99.90;;;;;;4971071;28;20078;-67
2023/03/24 11:00:23;;;;;;;9.90;2.50;;;13.80;99.90;;;;;;4966184;28;20130;-67
2023/03/24 11:02:59;;;;;;;14.85;2.72;;;13.90;99.90;;;;;;4976671;28;20493;-65
2023/03/24 11:05:32;;;;;;;11.63;2.85;;;13.90;99.90;;;;;;4978646;28;20071;-66
2023/03/24 11:08:37;;;;;;;10.00;2.60;;;14.00;99.90;;;;;;4986912;28;20054;-66
2023/03/24 11:11:29;;;;;;;12.70;2.72;;;13.80;99.90;;;;;;4969959;28;20053;-66
2023/03/24 11:14:00;;;;;;;8.77;2.78;;;13.90;99.90;;;;;;4970091;28;20138;-65
2023/03/24 11:16:30;;;;;;;12.77;2.75;;;13.70;99.90;;;;;;4970104;28;20097;-66
2023/03/24 11:19:04;;;;;;;15.45;3.45;;;13.50;99.90;;;;;;4975558;28;20034;-65
2023/03/24 11:21:33;;;;;;;6.97;2.58;;;13.60;99.90;;;;;;4969244;28;20078;-66
2023/03/24 11:24:03;;;;;;;9.90;2.63;;;13.80;99.90;;;;;;4970165;28;20045;-65
2023/03/24 11:26:34;;;;;;;11.13;2.80;;;13.80;99.90;;;;;;4978212;28;20513;-65
2023/03/24 11:29:08;;;;;;;12.63;2.90;;;13.90;99.90;;;;;;4974861;28;20042;-66
2023/03/24 11:31:39;;;;;;;11.32;2.83;;;14.00;99.90;;;;;;4970984;28;20489;-66
2023/03/24 11:34:23;;;;;;;13.10;3.15;;;14.00;99.90;;;;;;4971769;28;20039;-66
2023/03/24 11:36:58;;;;;;;12.25;3.22;;;14.00;99.90;;;;;;4968668;28;20046;-67
2023/03/24 11:39:25;;;;;;;10.90;2.80;;;14.10;99.90;;;;;;4970830;28;20046;-66
2023/03/24 11:42:03;;;;;;;13.18;3.35;;;14.10;99.90;;;;;;4976745;28;20129;-65
2023/03/24 11:44:37;;;;;;;13.23;3.00;;;13.90;99.90;;;;;;4982324;28;20042;-66
2023/03/24 11:47:27;;;;;;;11.27;3.15;;;13.90;99.90;;;;;;4978463;28;20195;-65
2023/03/24 11:50:10;;;;;;;13.80;3.35;;;14.00;99.90;;;;;;4972374;28;20046;-66
2023/03/24 11:52:48;;;;;;;12.40;3.35;;;14.10;99.90;;;;;;4975242;28;20055;-65
2023/03/24 11:55:22;;;;;;;13.98;3.72;;;14.30;99.90;;;;;;4975436;28;20109;-64
2023/03/24 11:57:57;;;;;;;10.38;3.08;;;14.30;99.90;;;;;;4968299;28;20162;-65
2023/03/24 12:00:40;;;;;;;12.85;3.20;;;14.30;99.90;;;;;;4973152;28;20533;-66
2023/03/24 12:03:45;;;;;;;14.25;3.58;;;14.30;99.90;;;;;;4971543;28;20052;-65
2023/03/24 12:06:22;;;;;;;11.27;3.20;;;14.50;99.90;;;;;;4971694;28;20592;-66
2023/03/24 12:09:03;;;;;;;10.18;3.05;;;14.50;99.90;;;;;;4983475;28;20132;-66
2023/03/24 12:12:08;;;;;;;8.50;3.03;;;14.30;99.90;;;;;;4975410;28;20058;-67
2023/03/24 12:14:37;;;;;;;7.80;2.60;;;14.40;99.90;;;;;;4966808;28;20053;-67
2023/03/24 12:17:05;;;;;;;10.85;3.33;;;14.50;99.90;;;;;;4972436;28;20046;-67
2023/03/24 12:20:19;;;;;;;13.07;3.15;;;14.20;99.90;;;;;;4973501;28;20035;-66
2023/03/24 12:22:50;;;;;;;7.05;2.38;;;14.20;99.90;;;;;;4957968;28;20113;-65
2023/03/24 12:25:28;;;;;;;;;;;14.40;99.90;;;;;;4969774;28;20051;-66
2023/03/24 12:28:14;;;;;;;15.77;2.92;;;14.60;99.90;;;;;;4974888;28;19918;-65
2023/03/24 12:30:57;;;;;;;11.98;2.78;;;14.90;99.90;;;;;;4969546;28;20042;-65
2023/03/24 12:33:49;;;;;;;11.93;2.40;;;14.90;99.90;;;;;;4970225;28;20185;-66
2023/03/24 12:36:20;;;;;;;11.10;2.03;;;14.70;99.90;;;;;;4977632;28;20110;-66
2023/03/24 12:39:11;;;;;;;9.00;2.15;;;14.50;99.60;;;;;;4969284;28;20540;-66
2023/03/24 12:41:40;;;;;;;;;;;14.40;99.90;;;;;;4976932;28;20505;-66
2023/03/24 12:44:43;;;;;;;9.88;2.17;;;14.20;99.90;;;;;;4980368;28;19930;-66
2023/03/24 12:47:42;;;;;;;8.85;2.20;;;14.30;99.90;;;;;;4973714;28;20494;-66
2023/03/24 12:50:24;;;;;;;9.70;2.47;;;14.40;99.90;;;;;;4970903;28;20562;-66
2023/03/24 12:53:16;;;;;;;12.38;3.33;;;14.50;99.90;;;;;;4975043;28;20039;-66
2023/03/24 12:55:50;;;;;;;11.00;2.67;;;14.50;99.90;;;;;;4973400;28;20101;-66
2023/03/24 12:58:45;;;;;;;9.13;2.83;;;14.60;99.90;;;;;;4970969;28;20046;-64
2023/03/24 13:01:37;;;;;;;12.38;2.50;;;14.30;99.90;;;;;;4973254;28;20043;-65
2023/03/24 13:04:16;;;;;;;10.93;2.58;;;14.20;99.90;;;;;;4973501;28;20053;-66
2023/03/24 13:06:45;;;;;;;10.45;2.47;;;14.60;99.90;;;;;;4971658;28;20050;-65